Time;durP1;ratioP1;P1;durP2;ratioP2;P2;SDS_P1;SDS_P2;PMS_P1;PMS_P2;Temp;Humidity;BMP_temperature;BMP_pressure;BME280_temperature;BME280_humidity;BME280_pressure;Samples;Min_cycle;Max_cycle;Signal;HPM_P1;HPM_P2
2021/04/10 00:01:42;;;;;;;11.57;3.17;;;;;;;;;;10379187;28;20245;-75
2021/04/10 00:06:45;;;;;;;9.73;2.73;;;;;;;;;;10380649;28;20224;-75
2021/04/10 00:11:52;;;;;;;9.00;2.63;;;;;;;;;;10376620;28;20208;-75
2021/04/10 00:16:54;;;;;;;7.53;2.60;;;;;;;;;;10371648;28;20631;-75
2021/04/10 00:21:57;;;;;;;8.03;2.57;;;;;;;;;;10374783;28;20243;-75
2021/04/10 00:26:59;;;;;;;7.47;3.10;;;;;;;;;;10372596;28;20702;-75
2021/04/10 00:32:01;;;;;;;7.40;2.57;;;;;;;;;;10379353;28;20316;-75
2021/04/10 00:37:04;;;;;;;6.33;2.70;;;;;;;;;;10372335;28;20212;-76
2021/04/10 00:42:07;;;;;;;9.03;2.80;;;;;;;;;;10377049;28;20236;-75
2021/04/10 00:47:09;;;;;;;7.80;2.67;;;;;;;;;;10371209;28;20220;-75
2021/04/10 00:52:14;;;;;;;5.57;2.63;;;;;;;;;;10381566;28;20226;-75
2021/04/10 00:57:21;;;;;;;8.20;2.90;;;;;;;;;;10373202;28;20219;-76
2021/04/10 01:02:23;;;;;;;9.93;2.63;;;;;;;;;;10387532;28;20318;-76
2021/04/10 01:07:26;;;;;;;5.40;2.50;;;;;;;;;;10386653;28;20223;-75
2021/04/10 01:12:37;;;;;;;9.60;3.03;;;;;;;;;;10381883;28;20633;-76
2021/04/10 01:17:43;;;;;;;8.97;2.60;;;;;;;;;;10387074;28;20221;-75
2021/04/10 01:23:05;;;;;;;8.77;2.67;;;;;;;;;;10377000;28;20243;-75
2021/04/10 01:28:13;;;;;;;9.23;2.70;;;;;;;;;;10382101;28;20990;-75
2021/04/10 01:33:19;;;;;;;10.60;2.83;;;;;;;;;;10378052;28;20217;-76
2021/04/10 01:38:21;;;;;;;9.87;3.00;;;;;;;;;;10385419;28;20224;-75
2021/04/10 01:43:23;;;;;;;9.17;2.80;;;;;;;;;;10378144;28;20240;-76
2021/04/10 01:48:26;;;;;;;6.87;2.50;;;;;;;;;;10387385;28;20710;-76
2021/04/10 01:53:30;;;;;;;6.57;2.70;;;;;;;;;;10379636;28;20273;-76
2021/04/10 01:58:33;;;;;;;8.83;2.50;;;;;;;;;;10381254;28;20216;-75
2021/04/10 02:03:36;;;;;;;7.43;2.77;;;;;;;;;;10380021;28;20243;-75
2021/04/10 02:08:41;;;;;;;7.13;2.60;;;;;;;;;;10376745;28;20615;-77
2021/04/10 02:13:43;;;;;;;8.83;2.87;;;;;;;;;;10373784;28;20212;-75
2021/04/10 02:18:47;;;;;;;9.70;2.63;;;;;;;;;;10380350;28;20213;-74
2021/04/10 02:23:49;;;;;;;7.47;2.60;;;;;;;;;;10376295;28;20239;-75
2021/04/10 02:28:55;;;;;;;9.57;2.83;;;;;;;;;;10378272;28;20680;-75
2021/04/10 02:34:00;;;;;;;9.10;2.63;;;;;;;;;;10374745;28;20585;-75
2021/04/10 02:39:02;;;;;;;6.67;2.70;;;;;;;;;;10379709;28;21099;-75
2021/04/10 02:44:06;;;;;;;9.40;2.87;;;;;;;;;;10380255;28;20225;-76
2021/04/10 02:49:23;;;;;;;7.27;3.07;;;;;;;;;;10381885;28;20205;-75
2021/04/10 02:54:26;;;;;;;9.77;2.87;;;;;;;;;;10384363;28;20222;-75
2021/04/10 02:59:29;;;;;;;6.60;2.50;;;;;;;;;;10377354;28;20679;-76
2021/04/10 03:04:34;;;;;;;8.87;2.33;;;;;;;;;;10371306;28;20714;-76
2021/04/10 03:09:37;;;;;;;7.87;2.70;;;;;;;;;;10378730;28;20213;-76
2021/04/10 03:14:53;;;;;;;8.33;2.90;;;;;;;;;;10374449;28;20246;-76
2021/04/10 03:19:56;;;;;;;8.33;2.70;;;;;;;;;;10382498;28;20244;-76
2021/04/10 03:24:58;;;;;;;12.67;3.17;;;;;;;;;;10375740;28;20684;-77
2021/04/10 03:30:00;;;;;;;9.90;3.10;;;;;;;;;;10378015;28;20435;-77
2021/04/10 03:35:28;;;;;;;6.97;2.70;;;;;;;;;;10377406;28;20208;-77
2021/04/10 03:40:29;;;;;;;7.90;2.93;;;;;;;;;;10378815;28;20722;-76
2021/04/10 03:45:33;;;;;;;7.93;3.10;;;;;;;;;;10377724;28;20230;-77
2021/04/10 03:50:36;;;;;;;9.33;3.10;;;;;;;;;;10377252;28;20204;-75
2021/04/10 03:55:38;;;;;;;9.63;3.13;;;;;;;;;;10381257;28;20615;-76
2021/04/10 04:00:50;;;;;;;7.03;2.90;;;;;;;;;;10371021;28;20239;-76
2021/04/10 04:06:06;;;;;;;11.37;3.03;;;;;;;;;;10381712;28;20248;-76
2021/04/10 04:11:14;;;;;;;8.37;2.80;;;;;;;;;;10376578;28;20226;-76
2021/04/10 04:16:16;;;;;;;12.40;3.63;;;;;;;;;;10377427;28;20248;-76
2021/04/10 04:21:38;;;;;;;8.00;2.70;;;;;;;;;;10384202;28;20721;-76
2021/04/10 04:26:40;;;;;;;11.67;3.37;;;;;;;;;;10368509;28;20212;-75
2021/04/10 04:31:42;;;;;;;9.20;3.17;;;;;;;;;;10377176;28;20219;-76
2021/04/10 04:36:45;;;;;;;10.67;3.67;;;;;;;;;;10372845;28;20216;-74
2021/04/10 04:41:47;;;;;;;7.70;2.90;;;;;;;;;;10391659;28;20455;-75
2021/04/10 04:46:48;;;;;;;7.87;2.87;;;;;;;;;;10387055;28;20227;-77
2021/04/10 04:51:53;;;;;;;9.07;2.97;;;;;;;;;;10387050;28;20577;-77
2021/04/10 04:56:55;;;;;;;8.97;3.17;;;;;;;;;;10389747;28;20223;-76
2021/04/10 05:01:57;;;;;;;9.50;2.90;;;;;;;;;;10383381;28;20243;-76
2021/04/10 05:06:59;;;;;;;7.13;2.60;;;;;;;;;;10382365;28;20243;-76
2021/04/10 05:12:01;;;;;;;13.23;3.23;;;;;;;;;;10381424;28;20227;-76
2021/04/10 05:17:05;;;;;;;8.20;2.60;;;;;;;;;;10389909;28;20685;-76
2021/04/10 05:22:07;;;;;;;6.57;2.73;;;;;;;;;;10374659;28;20236;-76
2021/04/10 05:27:09;;;;;;;7.60;3.17;;;;;;;;;;10385158;28;20212;-77
2021/04/10 05:32:11;;;;;;;8.77;2.67;;;;;;;;;;10382863;28;20326;-76
2021/04/10 05:37:18;;;;;;;9.17;2.90;;;;;;;;;;10382755;28;20693;-77
2021/04/10 05:42:20;;;;;;;7.33;2.27;;;;;;;;;;10386836;28;20334;-76
2021/04/10 05:47:47;;;;;;;10.10;2.77;;;;;;;;;;10388876;28;20213;-75
2021/04/10 05:52:50;;;;;;;6.43;2.30;;;;;;;;;;10366664;28;20214;-75
2021/04/10 05:57:52;;;;;;;9.80;2.70;;;;;;;;;;10375759;28;20687;-76
2021/04/10 06:02:55;;;;;;;7.97;2.60;;;;;;;;;;10381184;28;20262;-76
2021/04/10 06:07:58;;;;;;;10.13;2.60;;;;;;;;;;10388901;28;20215;-75
2021/04/10 06:13:00;;;;;;;9.43;2.80;;;;;;;;;;10380663;28;20530;-76
2021/04/10 06:18:02;;;;;;;10.00;2.53;;;;;;;;;;10375313;28;20763;-76
2021/04/10 06:23:06;;;;;;;12.03;2.60;;;;;;;;;;10380685;28;20259;-77
2021/04/10 06:28:09;;;;;;;10.20;2.70;;;;;;;;;;10374029;28;20307;-77
2021/04/10 06:33:11;;;;;;;11.63;3.00;;;;;;;;;;10372074;28;20208;-77
2021/04/10 06:38:14;;;;;;;8.20;2.53;;;;;;;;;;10366153;28;20329;-77
2021/04/10 06:43:19;;;;;;;10.30;2.87;;;;;;;;;;10360355;28;20242;-78
2021/04/10 06:48:22;;;;;;;7.87;2.33;;;;;;;;;;10359392;28;20354;-75
2021/04/10 06:53:25;;;;;;;8.63;2.80;;;;;;;;;;10359085;28;20243;-75
2021/04/10 06:58:32;;;;;;;8.70;2.60;;;;;;;;;;10362753;28;20215;-75
2021/04/10 07:03:34;;;;;;;8.80;2.80;;;;;;;;;;10366622;28;20248;-76
2021/04/10 07:08:43;;;;;;;8.17;2.73;;;;;;;;;;10363520;28;20213;-76
2021/04/10 07:13:46;;;;;;;7.77;2.60;;;;;;;;;;10369824;28;20220;-77
2021/04/10 07:18:48;;;;;;;9.37;2.67;;;;;;;;;;10373094;28;20359;-76
2021/04/10 07:23:53;;;;;;;5.70;2.57;;;;;;;;;;10369449;28;20267;-77
2021/04/10 07:28:54;;;;;;;7.53;2.63;;;;;;;;;;10370002;28;20311;-77
2021/04/10 07:34:00;;;;;;;10.67;2.97;;;;;;;;;;10371360;28;20220;-78
2021/04/10 07:39:03;;;;;;;8.13;2.50;;;;;;;;;;10371909;28;20224;-77
2021/04/10 07:44:05;;;;;;;9.77;3.00;;;;;;;;;;10368428;28;20714;-76
2021/04/10 07:49:08;;;;;;;10.80;2.65;;;;;;;;;;10372946;28;20475;-76
2021/04/10 07:54:24;;;;;;;7.70;2.67;;;;;;;;;;10375452;28;20309;-76
2021/04/10 07:59:27;;;;;;;9.70;2.70;;;;;;;;;;10373036;28;20212;-76
2021/04/10 08:04:44;;;;;;;10.43;2.53;;;;;;;;;;10376239;28;20248;-76
2021/04/10 08:09:56;;;;;;;7.40;2.80;;;;;;;;;;10375772;28;20694;-77
2021/04/10 08:14:58;;;;;;;11.27;2.80;;;;;;;;;;10374853;28;20218;-76
2021/04/10 08:20:19;;;;;;;9.77;2.60;;;;;;;;;;10389642;28;20216;-76
2021/04/10 08:25:32;;;;;;;11.07;2.50;;;;;;;;;;10377111;28;20212;-76
2021/04/10 08:30:34;;;;;;;6.03;2.40;;;;;;;;;;10381482;28;20375;-76
2021/04/10 08:35:37;;;;;;;8.80;2.30;;;;;;;;;;10380206;28;20227;-76
2021/04/10 08:40:41;;;;;;;4.70;2.17;;;;;;;;;;10368414;28;20320;-77
2021/04/10 08:45:44;;;;;;;6.67;2.27;;;;;;;;;;10381168;28;20220;-77
2021/04/10 08:50:46;;;;;;;6.23;2.23;;;;;;;;;;10388040;28;20231;-77
2021/04/10 08:55:50;;;;;;;8.13;2.57;;;;;;;;;;10388403;28;20717;-76
2021/04/10 09:00:52;;;;;;;6.87;2.20;;;;;;;;;;10387536;28;20738;-78
2021/04/10 09:06:04;;;;;;;8.40;2.20;;;;;;;;;;10388855;28;21661;-77
2021/04/10 09:11:18;;;;;;;7.93;2.20;;;;;;;;;;10378970;28;20311;-77
2021/04/10 09:16:37;;;;;;;7.57;2.27;;;;;;;;;;10382517;28;20346;-77
2021/04/10 09:21:41;;;;;;;7.10;2.20;;;;;;;;;;10388345;28;20320;-78
2021/04/10 09:26:52;;;;;;;9.93;2.47;;;;;;;;;;10381654;28;20705;-77
2021/04/10 09:31:56;;;;;;;5.80;1.97;;;;;;;;;;10385059;28;20243;-77
2021/04/10 09:36:58;;;;;;;7.57;2.20;;;;;;;;;;10381432;28;20324;-77
2021/04/10 09:42:01;;;;;;;8.77;2.47;;;;;;;;;;10385680;28;20265;-77
2021/04/10 09:47:12;;;;;;;5.67;2.20;;;;;;;;;;10377038;28;20215;-78
2021/04/10 09:52:15;;;;;;;5.27;2.10;;;;;;;;;;10385872;28;20247;-77
2021/04/10 09:57:18;;;;;;;6.10;2.60;;;;;;;;;;10383694;28;20220;-78
2021/04/10 10:02:28;;;;;;;5.83;2.27;;;;;;;;;;10384206;28;20823;-77
2021/04/10 10:07:30;;;;;;;6.70;2.50;;;;;;;;;;10380871;28;20242;-76
2021/04/10 10:12:33;;;;;;;5.80;2.30;;;;;;;;;;10385171;28;20754;-78
2021/04/10 10:17:35;;;;;;;5.57;2.13;;;;;;;;;;10377920;28;20342;-77
2021/04/10 10:22:39;;;;;;;10.97;2.60;;;;;;;;;;10384843;28;20674;-77
2021/04/10 10:27:44;;;;;;;5.30;2.37;;;;;;;;;;10379757;28;20226;-78
2021/04/10 10:32:47;;;;;;;8.47;2.43;;;;;;;;;;10381992;28;20223;-77
2021/04/10 10:37:49;;;;;;;9.60;3.07;;;;;;;;;;10381715;28;20407;-77
2021/04/10 10:43:04;;;;;;;10.70;2.80;;;;;;;;;;10372046;28;20430;-78
2021/04/10 10:48:16;;;;;;;5.07;2.30;;;;;;;;;;10380698;28;20294;-78
2021/04/10 10:53:22;;;;;;;7.57;2.40;;;;;;;;;;10373469;28;20265;-77
2021/04/10 10:58:30;;;;;;;8.30;2.50;;;;;;;;;;10372688;28;20621;-77
2021/04/10 11:03:34;;;;;;;8.17;2.20;;;;;;;;;;10382445;28;20240;-78
2021/04/10 11:08:36;;;;;;;6.87;2.37;;;;;;;;;;10378651;28;20206;-77
2021/04/10 11:13:41;;;;;;;10.63;2.60;;;;;;;;;;10374521;28;20220;-77
2021/04/10 11:18:43;;;;;;;7.80;2.63;;;;;;;;;;10372019;28;20226;-77
2021/04/10 11:24:00;;;;;;;6.23;2.20;;;;;;;;;;10369924;28;20900;-76
2021/04/10 11:29:20;;;;;;;7.43;2.23;;;;;;;;;;10369483;28;20213;-77
2021/04/10 11:34:29;;;;;;;5.20;2.10;;;;;;;;;;10378123;28;20238;-78
2021/04/10 11:39:53;;;;;;;12.10;2.33;;;;;;;;;;10373911;28;20218;-77
2021/04/10 11:44:56;;;;;;;7.23;2.47;;;;;;;;;;10375063;28;20339;-76
2021/04/10 11:50:06;;;;;;;8.50;2.30;;;;;;;;;;10380551;28;20278;-77
2021/04/10 11:55:10;;;;;;;7.07;2.43;;;;;;;;;;10377209;28;20783;-78
2021/04/10 12:00:15;;;;;;;6.97;2.33;;;;;;;;;;10373919;28;20864;-76
2021/04/10 12:05:23;;;;;;;7.87;2.30;;;;;;;;;;10371830;28;20275;-77
2021/04/10 12:10:27;;;;;;;10.57;2.50;;;;;;;;;;10379296;28;20224;-78
2021/04/10 12:15:29;;;;;;;7.83;2.20;;;;;;;;;;10368137;28;20576;-78
2021/04/10 12:20:32;;;;;;;4.67;2.30;;;;;;;;;;10380596;28;20674;-77
2021/04/10 12:25:34;;;;;;;8.13;2.47;;;;;;;;;;10371087;28;20606;-76
2021/04/10 12:30:36;;;;;;;5.47;2.13;;;;;;;;;;10376442;28;20590;-77
2021/04/10 12:35:39;;;;;;;8.17;2.47;;;;;;;;;;10376813;28;20275;-77
2021/04/10 12:40:42;;;;;;;6.83;2.23;;;;;;;;;;10380434;28;20361;-78
2021/04/10 12:45:44;;;;;;;8.53;2.50;;;;;;;;;;10375171;28;20700;-78
2021/04/10 12:50:47;;;;;;;10.20;2.80;;;;;;;;;;10380362;28;20338;-78
2021/04/10 12:55:49;;;;;;;5.63;2.50;;;;;;;;;;10386053;28;20244;-79
2021/04/10 13:00:51;;;;;;;9.03;2.77;;;;;;;;;;10386827;28;20311;-79
2021/04/10 13:05:54;;;;;;;8.97;3.03;;;;;;;;;;10380264;28;20244;-78
2021/04/10 13:10:56;;;;;;;9.20;2.97;;;;;;;;;;10378812;28;20239;-78
2021/04/10 13:15:58;;;;;;;8.73;3.30;;;;;;;;;;10376097;28;20986;-79
2021/04/10 13:21:01;;;;;;;8.70;2.87;;;;;;;;;;10392190;28;20641;-80
2021/04/10 13:26:02;;;;;;;5.87;2.83;;;;;;;;;;10380902;28;20307;-80
2021/04/10 13:31:05;;;;;;;7.97;2.80;;;;;;;;;;10387355;28;20302;-80
2021/04/10 13:36:08;;;;;;;8.33;2.77;;;;;;;;;;10376327;28;20217;-80
2021/04/10 13:41:12;;;;;;;10.43;3.10;;;;;;;;;;10375398;28;20638;-80
2021/04/10 13:46:16;;;;;;;8.03;3.00;;;;;;;;;;10383789;28;20270;-80
2021/04/10 13:51:19;;;;;;;9.50;3.50;;;;;;;;;;10377222;28;20215;-80
2021/04/10 13:56:21;;;;;;;9.37;3.40;;;;;;;;;;10378629;28;20635;-81
2021/04/10 14:01:27;;;;;;;9.17;3.57;;;;;;;;;;10376086;28;20271;-80
2021/04/10 14:06:30;;;;;;;6.17;3.20;;;;;;;;;;10386432;28;20646;-82
2021/04/10 14:11:32;;;;;;;8.87;3.67;;;;;;;;;;10378585;28;20258;-80
2021/04/10 14:16:34;;;;;;;6.87;3.37;;;;;;;;;;10386892;28;20685;-80
2021/04/10 14:21:39;;;;;;;8.77;3.47;;;;;;;;;;10373130;28;20347;-80
2021/04/10 14:26:41;;;;;;;7.23;3.17;;;;;;;;;;10371351;28;20220;-80
2021/04/10 14:42:56;;;;;;;9.87;3.20;;;;;;;;;;1560940;22;20222;-81
2021/04/10 14:47:58;;;;;;;9.87;3.10;;;;;;;;;;10371815;28;20707;-82
2021/04/10 14:53:00;;;;;;;8.00;3.20;;;;;;;;;;10373879;28;20244;-81
2021/04/10 14:58:05;;;;;;;10.13;3.60;;;;;;;;;;10380542;28;20906;-80
2021/04/10 15:03:07;;;;;;;10.60;3.40;;;;;;;;;;10332670;28;20796;-82
2021/04/10 15:08:09;;;;;;;10.77;3.43;;;;;;;;;;10354514;28;20602;-84
2021/04/10 15:13:13;;;;;;;7.77;3.57;;;;;;;;;;10345574;28;20216;-81
2021/04/10 15:18:15;;;;;;;7.67;3.30;;;;;;;;;;10355179;28;20230;-81
2021/04/10 15:23:17;;;;;;;9.70;3.50;;;;;;;;;;10352303;28;20714;-84
2021/04/10 15:28:20;;;;;;;11.07;3.80;;;;;;;;;;10346659;28;20212;-82
2021/04/10 15:33:22;;;;;;;8.43;3.47;;;;;;;;;;10357488;28;20220;-82
2021/04/10 15:38:24;;;;;;;7.70;3.30;;;;;;;;;;10374754;28;20687;-81
2021/04/10 15:43:34;;;;;;;9.60;3.40;;;;;;;;;;10382496;28;20239;-80
2021/04/10 15:48:36;;;;;;;9.70;3.50;;;;;;;;;;10381681;28;20216;-90
2021/04/10 15:53:38;;;;;;;7.53;3.60;;;;;;;;;;10376913;28;20208;-89
2021/04/10 15:58:42;;;;;;;6.93;3.50;;;;;;;;;;10373192;28;20934;-85
2021/04/10 16:03:45;;;;;;;8.17;3.53;;;;;;;;;;10385570;23;20339;-87
2021/04/10 16:08:47;;;;;;;6.70;3.20;;;;;;;;;;10375269;28;20231;-88
2021/04/10 16:13:50;;;;;;;5.00;2.80;;;;;;;;;;10369129;28;20774;-94
2021/04/10 16:19:03;;;;;;;5.20;3.33;;;;;;;;;;10365873;28;20219;-87
2021/04/10 16:24:06;;;;;;;7.13;3.47;;;;;;;;;;10373080;28;20607;-90
2021/04/10 16:29:08;;;;;;;5.33;3.00;;;;;;;;;;10371551;28;20277;-87
2021/04/10 16:34:10;;;;;;;5.90;3.07;;;;;;;;;;10387874;28;20220;-92
2021/04/10 16:39:12;;;;;;;7.43;3.10;;;;;;;;;;10380079;28;20220;-93
2021/04/10 16:44:15;;;;;;;5.20;3.00;;;;;;;;;;10388849;28;20720;-94
2021/04/10 16:49:17;;;;;;;5.37;2.80;;;;;;;;;;10378850;28;20281;-90
2021/04/10 16:54:24;;;;;;;6.03;2.87;;;;;;;;;;10379506;28;20213;-90
2021/04/10 16:59:27;;;;;;;5.03;2.87;;;;;;;;;;10369568;28;20224;-89
2021/04/10 17:04:31;;;;;;;5.47;2.90;;;;;;;;;;10380701;28;20626;-87
2021/04/10 17:09:33;;;;;;;4.43;2.80;;;;;;;;;;10386129;28;20221;-81
2021/04/10 17:14:38;;;;;;;4.30;2.70;;;;;;;;;;10378832;28;20709;-84
2021/04/10 17:19:43;;;;;;;3.37;2.60;;;;;;;;;;10371529;28;20225;-86
2021/04/10 17:24:45;;;;;;;6.30;3.00;;;;;;;;;;10380573;28;20241;-85
2021/04/10 17:29:50;;;;;;;6.90;2.93;;;;;;;;;;10374165;28;20224;-86
2021/04/10 17:34:52;;;;;;;3.20;2.40;;;;;;;;;;10372308;28;20659;-85
2021/04/10 17:39:55;;;;;;;4.83;3.00;;;;;;;;;;10372958;28;20228;-84
2021/04/10 17:44:58;;;;;;;3.43;2.50;;;;;;;;;;10350447;28;20244;-85
2021/04/10 17:50:00;;;;;;;3.93;2.90;;;;;;;;;;10378025;28;20267;-84
2021/04/10 17:55:06;;;;;;;3.87;2.90;;;;;;;;;;10371763;28;20700;-85
2021/04/10 18:00:10;;;;;;;5.23;3.00;;;;;;;;;;10371538;28;21056;-86
2021/04/10 18:05:12;;;;;;;2.90;2.60;;;;;;;;;;10371225;28;20250;-84
2021/04/10 18:10:14;;;;;;;3.17;2.57;;;;;;;;;;10375993;28;20216;-86
2021/04/10 18:15:18;;;;;;;4.17;2.40;;;;;;;;;;10367184;28;20725;-85
2021/04/10 18:20:20;;;;;;;3.73;2.07;;;;;;;;;;10373102;28;20633;-85
2021/04/10 18:25:23;;;;;;;2.00;1.73;;;;;;;;;;10369600;28;20613;-86
2021/04/10 18:30:26;;;;;;;2.17;1.90;;;;;;;;;;10374847;28;20208;-84
2021/04/10 18:35:31;;;;;;;3.07;2.00;;;;;;;;;;10372118;28;20752;-86
2021/04/10 18:40:33;;;;;;;2.93;2.00;;;;;;;;;;10374840;28;20220;-85
2021/04/10 18:45:36;;;;;;;3.97;2.87;;;;;;;;;;10369319;28;20243;-86
2021/04/10 18:50:38;;;;;;;2.83;2.53;;;;;;;;;;10371195;28;20632;-87
2021/04/10 18:55:40;;;;;;;4.47;2.80;;;;;;;;;;10361978;28;20208;-86
2021/04/10 19:00:42;;;;;;;4.47;2.17;;;;;;;;;;10373681;28;20236;-86
2021/04/10 19:05:44;;;;;;;3.07;2.57;;;;;;;;;;10366891;28;20512;-85
2021/04/10 19:10:47;;;;;;;3.77;2.50;;;;;;;;;;10369350;28;20208;-83
2021/04/10 19:15:50;;;;;;;2.40;2.20;;;;;;;;;;10365908;28;20249;-84
2021/04/10 19:20:52;;;;;;;2.37;2.17;;;;;;;;;;10372468;28;20603;-84
2021/04/10 19:25:55;;;;;;;2.77;2.37;;;;;;;;;;10369218;28;20243;-85
2021/04/10 19:31:04;;;;;;;3.50;2.67;;;;;;;;;;10369060;28;20715;-84
2021/04/10 19:36:07;;;;;;;3.37;2.50;;;;;;;;;;10375550;28;20227;-85
2021/04/10 19:41:08;;;;;;;2.60;2.40;;;;;;;;;;10367050;28;20221;-84
2021/04/10 19:46:13;;;;;;;2.67;2.47;;;;;;;;;;10368696;28;20244;-84
2021/04/10 19:51:15;;;;;;;3.23;2.63;;;;;;;;;;10365000;28;20235;-85
2021/04/10 19:56:21;;;;;;;3.00;2.70;;;;;;;;;;10372088;28;20294;-84
2021/04/10 20:01:27;;;;;;;3.03;2.70;;;;;;;;;;10365965;28;20240;-84
2021/04/10 20:06:29;;;;;;;4.13;2.50;;;;;;;;;;10360948;28;20573;-83
2021/04/10 20:11:32;;;;;;;3.67;2.53;;;;;;;;;;10362425;28;20639;-84
2021/04/10 20:16:37;;;;;;;2.20;2.00;;;;;;;;;;10364727;28;20220;-84
2021/04/10 20:21:40;;;;;;;2.87;2.07;;;;;;;;;;10362118;28;20616;-84
2021/04/10 20:26:42;;;;;;;2.60;2.40;;;;;;;;;;10372348;28;20721;-79
2021/04/10 20:31:45;;;;;;;2.53;1.73;;;;;;;;;;10361865;28;20208;-78
2021/04/10 20:36:49;;;;;;;2.60;1.83;;;;;;;;;;10367901;28;20212;-79
2021/04/10 20:41:54;;;;;;;1.70;1.60;;;;;;;;;;10362425;28;20242;-79
2021/04/10 20:46:57;;;;;;;1.70;1.60;;;;;;;;;;10367612;28;20662;-79
2021/04/10 20:52:00;;;;;;;2.53;1.90;;;;;;;;;;10365624;28;20224;-80
2021/04/10 20:57:02;;;;;;;2.20;2.00;;;;;;;;;;10364991;28;20775;-78
2021/04/10 21:02:09;;;;;;;2.17;1.90;;;;;;;;;;10370475;28;20612;-85
2021/04/10 21:07:11;;;;;;;2.20;1.90;;;;;;;;;;10369999;28;20731;-84
2021/04/10 21:12:13;;;;;;;2.23;1.90;;;;;;;;;;10367377;28;20221;-84
2021/04/10 21:17:16;;;;;;;2.23;1.90;;;;;;;;;;10368259;28;20219;-86
2021/04/10 21:22:19;;;;;;;2.23;1.60;;;;;;;;;;10376822;28;20236;-84
2021/04/10 21:27:23;;;;;;;1.90;1.70;;;;;;;;;;10378308;28;20669;-83
2021/04/10 21:32:26;;;;;;;1.90;1.70;;;;;;;;;;10375478;28;20212;-84
2021/04/10 21:37:28;;;;;;;2.00;1.60;;;;;;;;;;10380844;28;20217;-85
2021/04/10 21:42:32;;;;;;;1.73;1.63;;;;;;;;;;10377083;28;20229;-85
2021/04/10 21:47:35;;;;;;;1.47;1.37;;;;;;;;;;10376248;28;20222;-84
2021/04/10 21:52:37;;;;;;;1.97;1.80;;;;;;;;;;10368635;28;20223;-85
2021/04/10 21:57:39;;;;;;;2.07;1.80;;;;;;;;;;10375031;28;20220;-85
2021/04/10 22:02:42;;;;;;;1.90;1.70;;;;;;;;;;10373694;28;20240;-83
2021/04/10 22:07:44;;;;;;;1.80;1.70;;;;;;;;;;10374653;28;20204;-84
2021/04/10 22:12:46;;;;;;;1.77;1.63;;;;;;;;;;10365516;28;20217;-84
2021/04/10 22:17:49;;;;;;;1.70;1.60;;;;;;;;;;10377027;28;20215;-83
2021/04/10 22:22:51;;;;;;;1.60;1.50;;;;;;;;;;10379134;28;21022;-84
2021/04/10 22:27:53;;;;;;;1.63;1.53;;;;;;;;;;10369944;28;20585;-84
2021/04/10 22:32:56;;;;;;;1.73;1.43;;;;;;;;;;10372554;28;20226;-84
2021/04/10 22:37:58;;;;;;;1.40;1.30;;;;;;;;;;10375845;28;20584;-84
2021/04/10 22:43:00;;;;;;;2.33;1.50;;;;;;;;;;10371988;28;20263;-83
2021/04/10 22:48:04;;;;;;;1.70;1.57;;;;;;;;;;10373394;28;20213;-84
2021/04/10 22:53:07;;;;;;;2.40;1.73;;;;;;;;;;10376271;28;20215;-83
2021/04/10 22:58:09;;;;;;;1.70;1.60;;;;;;;;;;10372254;28;20470;-84
2021/04/10 23:03:11;;;;;;;1.60;1.50;;;;;;;;;;10377311;28;20246;-83
2021/04/10 23:08:14;;;;;;;3.10;1.60;;;;;;;;;;10378920;28;20570;-83
2021/04/10 23:13:16;;;;;;;1.50;1.40;;;;;;;;;;10375379;28;20216;-84
2021/04/10 23:18:18;;;;;;;1.60;1.50;;;;;;;;;;10370556;28;20209;-84
2021/04/10 23:23:20;;;;;;;1.50;1.40;;;;;;;;;;10372318;28;20238;-84
2021/04/10 23:28:22;;;;;;;1.30;1.20;;;;;;;;;;10372883;28;20214;-83
2021/04/10 23:33:27;;;;;;;1.77;1.50;;;;;;;;;;10372836;28;20217;-83
2021/04/10 23:38:30;;;;;;;1.53;1.43;;;;;;;;;;10373657;28;20319;-82
2021/04/10 23:43:32;;;;;;;1.57;1.40;;;;;;;;;;10372212;28;20236;-84
2021/04/10 23:48:35;;;;;;;1.63;1.53;;;;;;;;;;10383744;28;20747;-83
2021/04/10 23:53:37;;;;;;;1.70;1.60;;;;;;;;;;10370523;28;20489;-83
2021/04/10 23:58:39;;;;;;;1.47;1.37;;;;;;;;;;10374979;28;20335;-83
